Time;durP1;ratioP1;P1;durP2;ratioP2;P2;SDS_P1;SDS_P2;PMS_P1;PMS_P2;Temp;Humidity;BMP_temperature;BMP_pressure;BME280_temperature;BME280_humidity;BME280_pressure;Samples;Min_cycle;Max_cycle;Signal;HPM_P1;HPM_P2
2021/11/07 00:00:59;;;;;;;;;20.50;19.75;;;;;16.62;100.00;102089.03;5059838;28;45403;-82
2021/11/07 00:03:35;;;;;;;;;22.00;19.75;;;;;16.57;100.00;102086.66;5062511;28;45275;-82
2021/11/07 00:09:10;;;;;;;;;22.25;19.75;;;;;16.61;100.00;102087.31;5024351;28;45508;-84
2021/11/07 00:11:37;;;;;;;;;20.25;17.50;;;;;16.68;100.00;102093.94;5055676;28;45574;-82
2021/11/07 00:14:06;;;;;;;;;23.25;19.25;;;;;16.69;100.00;102093.81;5055809;28;45329;-81
2021/11/07 00:16:34;;;;;;;;;25.50;19.50;;;;;16.71;100.00;102088.38;5056669;28;45376;-82
2021/11/07 00:19:16;;;;;;;;;22.50;20.00;;;;;16.72;100.00;102076.75;5058385;28;45831;-81
2021/11/07 00:21:49;;;;;;;;;19.00;17.25;;;;;16.81;100.00;102081.44;5030308;28;45374;-82
2021/11/07 00:24:33;;;;;;;;;20.00;17.00;;;;;16.78;100.00;102061.16;5047900;28;45387;-82
2021/11/07 00:29:33;;;;;;;;;17.75;11.00;;;;;16.75;100.00;102065.88;5045193;28;45545;-82
2021/11/07 00:35:10;;;;;;;;;24.25;19.00;;;;;16.74;100.00;102051.69;5061758;28;45572;-81
2021/11/07 00:37:47;;;;;;;;;18.25;16.50;;;;;16.68;100.00;102057.44;5074437;28;45799;-81
2021/11/07 00:48:03;;;;;;;;;17.75;17.50;;;;;16.54;100.00;102064.72;5042398;28;45914;-81
2021/11/07 00:50:41;;;;;;;;;20.75;16.75;;;;;16.48;100.00;102050.84;5048449;28;45395;-81
2021/11/07 00:53:52;;;;;;;;;21.75;20.25;;;;;16.54;100.00;102060.22;5026943;28;45447;-81
2021/11/07 00:56:21;;;;;;;;;26.00;20.00;;;;;16.54;100.00;102059.38;5050319;28;47514;-81
2021/11/07 00:58:56;;;;;;;;;21.25;21.00;;;;;16.57;100.00;102068.00;5057542;28;46775;-81
2021/11/07 01:01:24;;;;;;;;;19.00;16.50;;;;;16.59;100.00;102055.41;5049478;28;45743;-81
2021/11/07 01:03:51;;;;;;;;;20.25;18.00;;;;;16.57;100.00;102049.31;5042336;28;45304;-81
2021/11/07 01:06:16;;;;;;;;;24.50;20.25;;;;;16.44;100.00;102044.03;5040815;28;45412;-81
2021/11/07 01:08:42;;;;;;;;;18.00;17.25;;;;;16.47;100.00;102032.31;5050660;28;45563;-81
2021/11/07 01:11:07;;;;;;;;;19.25;18.00;;;;;16.59;100.00;102027.88;5045783;28;45416;-81
2021/11/07 01:13:34;;;;;;;;;22.00;17.75;;;;;16.73;100.00;102033.97;5059564;28;45337;-81
2021/11/07 01:16:00;;;;;;;;;21.25;15.50;;;;;16.73;100.00;102017.13;5062175;28;45340;-81
2021/11/07 01:18:26;;;;;;;;;20.50;17.00;;;;;16.79;100.00;102022.00;5056149;28;45376;-81
2021/11/07 01:20:52;;;;;;;;;22.00;14.00;;;;;16.81;100.00;102017.41;5046769;28;45387;-81
2021/11/07 01:23:29;;;;;;;;;20.00;15.25;;;;;16.71;100.00;102008.38;5051947;28;45601;-82
2021/11/07 01:26:07;;;;;;;;;18.25;17.75;;;;;16.71;100.00;101998.56;5042035;28;45345;-81
2021/11/07 01:28:40;;;;;;;;;24.50;17.50;;;;;16.59;100.00;101993.22;5050573;28;46484;-82
2021/11/07 01:31:06;;;;;;;;;24.25;16.75;;;;;16.66;100.00;101994.53;5026609;28;45407;-82
2021/11/07 01:33:31;;;;;;;;;14.50;12.75;;;;;16.59;100.00;101979.88;5036054;28;45352;-82
2021/11/07 01:38:33;;;;;;;;;14.50;14.00;;;;;16.63;100.00;101978.75;5053927;28;45638;-80
2021/11/07 01:41:15;;;;;;;;;16.50;14.00;;;;;16.59;100.00;101972.72;5024736;28;45633;-82
2021/11/07 01:43:42;;;;;;;;;13.75;13.75;;;;;16.47;100.00;101963.00;5041636;28;45353;-82
2021/11/07 01:46:23;;;;;;;;;19.00;14.50;;;;;16.56;100.00;101964.13;5060466;28;45249;-81
2021/11/07 01:49:14;;;;;;;;;18.00;13.75;;;;;16.61;100.00;101961.97;5053928;28;45849;-82
2021/11/07 01:51:47;;;;;;;;;17.75;15.00;;;;;16.64;100.00;101961.78;5048930;28;45617;-82
2021/11/07 01:56:42;;;;;;;;;15.00;13.00;;;;;16.56;100.00;101950.78;5059636;28;45520;-81
2021/11/07 01:59:08;;;;;;;;;16.00;13.75;;;;;16.64;100.00;101954.63;5055142;28;46287;-81
2021/11/07 02:01:34;;;;;;;;;19.50;15.00;;;;;16.66;100.00;101954.53;5035808;28;45400;-82
2021/11/07 02:03:59;;;;;;;;;15.00;13.00;;;;;16.68;100.00;101972.09;5054362;28;45410;-82
2021/11/07 02:06:25;;;;;;;;;19.50;14.00;;;;;16.70;100.00;101954.16;5046474;28;45280;-81
2021/11/07 02:08:50;;;;;;;;;13.00;10.50;;;;;16.66;100.00;101955.34;5044089;28;45772;-81
2021/11/07 02:11:16;;;;;;;;;19.00;14.25;;;;;16.72;100.00;101962.06;5042058;28;45353;-81
2021/11/07 02:13:41;;;;;;;;;12.75;12.50;;;;;16.72;100.00;101943.38;5052619;28;45316;-81
2021/11/07 02:16:07;;;;;;;;;15.75;13.00;;;;;16.74;100.00;101952.13;5048986;28;45322;-81
2021/11/07 02:18:35;;;;;;;;;16.25;13.25;;;;;16.87;100.00;101942.22;5049064;28;45428;-81
2021/11/07 02:21:05;;;;;;;;;15.00;14.25;;;;;16.76;100.00;101948.38;5040684;28;45727;-81
2021/11/07 02:23:31;;;;;;;;;13.50;11.75;;;;;16.78;100.00;101938.44;5052227;28;45443;-81
2021/11/07 02:26:01;;;;;;;;;18.00;13.50;;;;;16.74;100.00;101944.13;5054708;28;45213;-81
2021/11/07 02:28:35;;;;;;;;;18.25;14.75;;;;;16.78;100.00;101932.25;5055810;28;45438;-81
2021/11/07 02:31:03;;;;;;;;;15.00;12.25;;;;;16.93;100.00;101940.94;5050180;28;45776;-81
2021/11/07 02:33:28;;;;;;;;;18.75;14.75;;;;;16.86;100.00;101935.19;5060023;28;45321;-81
2021/11/07 02:35:54;;;;;;;;;14.25;11.25;;;;;16.83;100.00;101938.13;5066444;28;45533;-81
2021/11/07 02:38:19;;;;;;;;;15.75;13.75;;;;;16.82;100.00;101925.75;5045231;28;48293;-81
2021/11/07 02:40:45;;;;;;;;;12.00;11.25;;;;;16.82;100.00;101934.59;5064143;28;45445;-81
2021/11/07 02:43:10;;;;;;;;;15.00;13.25;;;;;16.77;100.00;101923.41;5050393;28;45479;-81
2021/11/07 02:45:36;;;;;;;;;15.50;13.75;;;;;16.71;100.00;101925.69;5054556;28;45431;-81
2021/11/07 02:48:01;;;;;;;;;12.50;12.50;;;;;16.67;100.00;101927.72;5048633;28;46440;-82
2021/11/07 02:50:27;;;;;;;;;16.25;12.25;;;;;16.62;100.00;101908.53;5039987;28;45291;-81
2021/11/07 02:52:52;;;;;;;;;15.75;12.25;;;;;16.74;100.00;101915.66;5050685;28;45878;-81
2021/11/07 02:55:21;;;;;;;;;18.75;12.00;;;;;16.73;100.00;101913.09;5028428;28;45456;-81
2021/11/07 02:57:47;;;;;;;;;16.00;13.25;;;;;16.72;100.00;101906.03;5057791;28;45489;-81
2021/11/07 03:00:16;;;;;;;;;15.25;11.75;;;;;16.73;100.00;101911.28;5043809;28;45756;-81
2021/11/07 03:02:41;;;;;;;;;9.00;7.25;;;;;16.74;100.00;101904.97;5046767;28;45261;-81
2021/11/07 03:05:10;;;;;;;;;17.75;12.25;;;;;16.79;100.00;101904.63;5046174;28;45232;-81
2021/11/07 03:07:36;;;;;;;;;18.25;14.00;;;;;16.80;100.00;101900.97;5031591;28;47213;-81
2021/11/07 03:10:05;;;;;;;;;17.75;11.25;;;;;16.66;100.00;101903.84;5053765;28;45445;-81
2021/11/07 03:12:30;;;;;;;;;15.75;10.75;;;;;16.51;100.00;101910.25;5064435;28;45453;-81
2021/11/07 03:14:55;;;;;;;;;14.50;11.25;;;;;16.43;100.00;101898.34;5064872;28;45697;-81
2021/11/07 03:17:24;;;;;;;;;14.25;12.50;;;;;16.40;100.00;101911.91;5027510;28;47284;-81
2021/11/07 03:19:50;;;;;;;;;15.50;13.75;;;;;16.24;100.00;101897.16;5051442;28;45486;-81
2021/11/07 03:22:20;;;;;;;;;17.00;14.25;;;;;16.29;100.00;101895.00;5046682;28;45454;-82
2021/11/07 03:24:52;;;;;;;;;15.25;14.00;;;;;16.15;100.00;101890.69;5060991;28;45478;-81
2021/11/07 03:27:24;;;;;;;;;20.25;15.50;;;;;15.93;100.00;101888.69;5049781;28;45352;-81
2021/11/07 03:29:53;;;;;;;;;13.00;12.50;;;;;15.85;100.00;101887.53;5053756;28;45392;-81
2021/11/07 03:32:27;;;;;;;;;15.75;13.50;;;;;16.07;100.00;101901.03;5048126;28;45381;-81
2021/11/07 03:34:56;;;;;;;;;15.25;13.50;;;;;16.13;100.00;101892.59;5063908;28;45467;-81
2021/11/07 03:37:23;;;;;;;;;15.00;13.25;;;;;16.15;100.00;101882.69;5064434;28;46040;-81
2021/11/07 03:39:54;;;;;;;;;16.00;14.00;;;;;16.25;100.00;101883.72;5059010;28;45892;-81
2021/11/07 03:42:22;;;;;;;;;18.00;11.25;;;;;16.48;100.00;101887.34;5066163;28;45205;-81
2021/11/07 03:44:49;;;;;;;;;17.25;15.25;;;;;16.52;100.00;101891.50;5049231;28;45282;-81
2021/11/07 03:47:14;;;;;;;;;14.25;12.50;;;;;16.41;100.00;101878.94;5032186;28;47453;-81
2021/11/07 03:49:41;;;;;;;;;16.00;13.75;;;;;16.53;100.00;101884.34;5060949;28;45333;-81
2021/11/07 03:52:09;;;;;;;;;17.00;14.75;;;;;16.56;100.00;101892.13;5030801;28;45628;-81
2021/11/07 03:54:34;;;;;;;;;17.75;14.25;;;;;16.51;100.00;101886.25;5047078;28;45478;-81
2021/11/07 03:57:02;;;;;;;;;15.00;13.00;;;;;16.53;100.00;101879.00;5038477;28;47288;-81
2021/11/07 03:59:29;;;;;;;;;15.50;9.00;;;;;16.55;100.00;101885.09;5048541;28;45248;-81
2021/11/07 04:01:54;;;;;;;;;15.50;13.50;;;;;16.56;100.00;101882.31;5058980;28;45552;-81
2021/11/07 04:04:20;;;;;;;;;15.00;14.50;;;;;16.55;100.00;101885.94;5043418;28;45447;-81
2021/11/07 04:06:46;;;;;;;;;17.75;15.00;;;;;16.55;100.00;101877.94;5030417;28;48100;-81
2021/11/07 04:09:11;;;;;;;;;17.50;15.50;;;;;16.54;100.00;101878.03;5052967;28;45400;-81
2021/11/07 04:11:39;;;;;;;;;17.25;16.00;;;;;16.57;100.00;101875.97;5060402;28;45449;-81
2021/11/07 04:14:06;;;;;;;;;15.25;14.00;;;;;16.72;100.00;101877.56;5036106;28;45566;-81
2021/11/07 04:16:33;;;;;;;;;15.25;14.25;;;;;16.72;100.00;101872.22;5045208;28;46098;-81
2021/11/07 04:18:58;;;;;;;;;15.00;14.00;;;;;16.68;100.00;101870.75;5054309;28;45363;-81
2021/11/07 04:21:24;;;;;;;;;16.50;12.50;;;;;16.81;100.00;101865.34;5052630;28;45366;-81
2021/11/07 04:23:50;;;;;;;;;16.25;14.00;;;;;16.92;100.00;101857.38;5061871;28;45373;-81
2021/11/07 04:26:16;;;;;;;;;16.50;13.50;;;;;26.03;100.00;101834.78;5057857;28;45937;-81
2021/11/07 04:28:42;;;;;;;;;16.00;13.25;;;;;19.10;100.00;101848.50;5035370;28;45763;-81
2021/11/07 04:31:07;;;;;;;;;11.75;11.00;;;;;19.40;100.00;101853.03;5062467;28;45506;-81
2021/11/07 04:33:33;;;;;;;;;13.00;12.00;;;;;19.41;100.00;101852.91;5046314;28;45421;-81
2021/11/07 04:35:59;;;;;;;;;13.75;13.75;;;;;19.02;100.00;101837.63;5044798;28;46385;-81
2021/11/07 04:38:25;;;;;;;;;15.25;13.00;;;;;19.03;100.00;101847.31;5060927;28;45352;-81
2021/11/07 04:40:50;;;;;;;;;17.00;15.00;;;;;19.04;100.00;101851.69;5034328;28;45242;-81
2021/11/07 04:43:17;;;;;;;;;17.50;15.75;;;;;18.92;100.00;101844.72;5059156;28;45467;-81
2021/11/07 04:45:43;;;;;;;;;14.25;11.00;;;;;18.88;100.00;101854.00;5061833;28;46274;-80
2021/11/07 04:48:09;;;;;;;;;14.00;12.25;;;;;18.56;100.00;101843.31;5056815;28;45412;-80
2021/11/07 04:50:37;;;;;;;;;15.75;14.00;;;;;18.74;100.00;101840.94;5059350;28;45522;-81
2021/11/07 04:53:11;;;;;;;;;15.25;14.00;;;;;18.88;100.00;101843.28;5058160;28;45461;-80
2021/11/07 04:55:41;;;;;;;;;13.00;10.75;;;;;18.53;100.00;101831.03;5060486;28;45504;-79
2021/11/07 04:58:07;;;;;;;;;15.25;14.00;;;;;18.61;100.00;101820.56;5050217;28;45456;-80
2021/11/07 05:00:33;;;;;;;;;18.00;12.75;;;;;18.86;100.00;101805.09;5068758;28;44813;-81
2021/11/07 05:03:01;;;;;;;;;14.75;13.00;;;;;18.78;100.00;101812.91;5046224;28;45411;-81
2021/11/07 05:05:28;;;;;;;;;19.25;14.50;;;;;18.85;100.00;101812.25;5054884;28;45530;-81
2021/11/07 05:07:55;;;;;;;;;17.75;13.00;;;;;18.92;100.00;101815.28;5062751;28;45320;-81
2021/11/07 05:10:21;;;;;;;;;19.75;13.50;;;;;18.85;100.00;101803.38;5047780;28;45324;-81
2021/11/07 05:12:47;;;;;;;;;13.75;13.00;;;;;18.87;100.00;101806.78;5046415;28;45674;-81
2021/11/07 05:15:13;;;;;;;;;16.00;12.50;;;;;18.79;100.00;101803.91;5054197;28;46380;-81
2021/11/07 05:17:38;;;;;;;;;21.25;14.25;;;;;18.86;100.00;101789.03;5044982;28;45496;-81
2021/11/07 05:20:05;;;;;;;;;15.25;14.75;;;;;18.66;100.00;101783.53;5048579;28;45491;-81
2021/11/07 05:22:31;;;;;;;;;18.25;14.50;;;;;18.67;100.00;101784.41;5047238;28;45393;-81
2021/11/07 05:24:56;;;;;;;;;17.00;14.75;;;;;18.78;100.00;101783.47;5046731;28;45919;-81
2021/11/07 05:27:22;;;;;;;;;18.25;13.50;;;;;18.86;100.00;101795.22;5051070;28;45399;-81
2021/11/07 05:29:47;;;;;;;;;14.25;11.75;;;;;18.78;100.00;101788.84;5048114;28;45446;-81
2021/11/07 05:32:12;;;;;;;;;17.25;15.75;;;;;18.71;100.00;101793.88;5047915;28;45558;-81
2021/11/07 05:34:41;;;;;;;;;18.25;12.25;;;;;18.94;100.00;101789.22;5040641;28;45504;-81
2021/11/07 05:37:06;;;;;;;;;16.00;11.00;;;;;18.94;100.00;101792.75;5052072;28;45367;-81
2021/11/07 05:39:32;;;;;;;;;15.00;14.00;;;;;18.88;100.00;101797.78;5053252;28;45235;-81
2021/11/07 05:41:57;;;;;;;;;16.00;13.75;;;;;19.16;100.00;101782.84;5042493;28;45324;-81
2021/11/07 05:44:23;;;;;;;;;14.25;12.00;;;;;19.05;100.00;101779.28;5040977;28;45477;-81
2021/11/07 05:46:48;;;;;;;;;17.25;10.50;;;;;18.95;100.00;101780.22;5044032;28;45300;-81
2021/11/07 05:49:14;;;;;;;;;17.50;12.50;;;;;18.84;100.00;101767.78;5045482;28;45416;-80
2021/11/07 05:51:39;;;;;;;;;17.00;15.75;;;;;18.67;100.00;101766.50;5047411;28;45404;-81
2021/11/07 05:54:05;;;;;;;;;16.50;12.50;;;;;18.82;100.00;101776.91;5021690;28;47548;-81
2021/11/07 05:56:31;;;;;;;;;18.50;13.75;;;;;18.73;100.00;101765.16;5038201;28;46280;-81
2021/11/07 05:58:58;;;;;;;;;14.75;14.00;;;;;18.78;100.00;101767.44;5056285;28;45415;-81
2021/11/07 06:01:24;;;;;;;;;11.00;11.00;;;;;18.75;100.00;101773.91;5045379;28;45522;-81
2021/11/07 06:03:49;;;;;;;;;17.25;13.00;;;;;18.87;100.00;101778.19;5046566;28;45315;-80
2021/11/07 06:06:15;;;;;;;;;11.00;11.00;;;;;18.48;100.00;101784.25;5060028;28;45264;-81
2021/11/07 06:08:40;;;;;;;;;19.25;13.25;;;;;18.60;100.00;101785.91;5039244;28;45820;-81
2021/11/07 06:11:05;;;;;;;;;11.75;11.00;;;;;18.58;100.00;101787.84;5030029;28;45719;-81
2021/11/07 06:13:31;;;;;;;;;13.50;11.00;;;;;18.75;100.00;101778.41;5040438;28;48130;-81
2021/11/07 06:15:58;;;;;;;;;14.75;13.75;;;;;18.75;100.00;101789.97;5048311;28;45202;-81
2021/11/07 06:18:23;;;;;;;;;12.00;10.50;;;;;18.83;100.00;101794.66;5022781;28;45552;-80
2021/11/07 06:20:49;;;;;;;;;15.75;11.50;;;;;18.88;100.00;101795.09;5053180;28;45463;-81
2021/11/07 06:23:14;;;;;;;;;20.00;15.00;;;;;18.87;100.00;101793.41;5040761;28;47989;-81
2021/11/07 06:25:40;;;;;;;;;15.75;11.75;;;;;19.01;100.00;101793.94;5033452;28;45427;-81
2021/11/07 06:28:06;;;;;;;;;12.50;10.50;;;;;19.00;100.00;101799.41;5028756;28;45337;-81
2021/11/07 06:30:32;;;;;;;;;13.75;12.00;;;;;18.83;100.00;101786.63;5029079;28;46285;-81
2021/11/07 06:32:58;;;;;;;;;17.00;15.00;;;;;18.64;100.00;101782.84;5024521;28;46333;-81
2021/11/07 06:35:24;;;;;;;;;13.50;11.00;;;;;18.70;100.00;101792.16;5026215;28;45466;-81
2021/11/07 06:37:50;;;;;;;;;15.00;14.50;;;;;18.59;100.00;101786.88;5055204;28;45580;-82
2021/11/07 06:40:16;;;;;;;;;21.50;15.50;;;;;18.49;100.00;101786.78;5043222;28;45461;-81
2021/11/07 06:42:41;;;;;;;;;14.50;12.00;;;;;18.50;100.00;101791.16;5039738;28;45246;-81
2021/11/07 06:45:07;;;;;;;;;17.25;14.75;;;;;18.60;100.00;101775.19;5044174;28;45316;-81
2021/11/07 06:47:33;;;;;;;;;14.75;11.50;;;;;18.53;100.00;101774.84;5047596;28;45261;-81
2021/11/07 06:49:58;;;;;;;;;17.50;12.00;;;;;18.49;100.00;101778.75;5051798;28;45321;-81
2021/11/07 06:52:25;;;;;;;;;17.75;11.00;;;;;18.33;100.00;101762.31;5059227;28;46435;-81
2021/11/07 06:54:52;;;;;;;;;17.75;11.75;;;;;18.40;100.00;101768.81;5043758;28;45345;-81
2021/11/07 06:57:18;;;;;;;;;18.00;14.00;;;;;18.48;100.00;101776.22;5050562;28;45497;-80
2021/11/07 06:59:43;;;;;;;;;15.00;11.50;;;;;18.57;100.00;101775.47;5054453;28;45430;-80
2021/11/07 07:02:09;;;;;;;;;15.50;13.25;;;;;18.65;100.00;101768.50;5053595;28;46458;-80
2021/11/07 07:04:34;;;;;;;;;14.75;12.50;;;;;18.60;100.00;101760.00;5049623;28;45134;-81
2021/11/07 07:06:59;;;;;;;;;18.25;12.50;;;;;18.71;100.00;101768.94;5038705;28;45585;-81
2021/11/07 07:09:31;;;;;;;;;14.75;12.25;;;;;18.78;100.00;101762.06;5050164;28;45310;-81
2021/11/07 07:12:07;;;;;;;;;18.50;14.50;;;;;18.69;100.00;101753.88;5033797;28;47247;-81
2021/11/07 07:14:40;;;;;;;;;16.75;15.00;;;;;18.38;100.00;101762.78;5058476;28;45349;-81
2021/11/07 07:17:25;;;;;;;;;16.50;14.25;;;;;18.46;100.00;101756.78;5047561;28;45457;-81
2021/11/07 07:20:21;;;;;;;;;16.25;11.75;;;;;18.38;100.00;101760.09;5038960;28;45396;-81
2021/11/07 07:30:45;;;;;;;;;21.50;16.00;;;;;18.57;100.00;101757.56;5060145;28;45225;-81
2021/11/07 07:35:38;;;;;;;;;15.00;15.00;;;;;18.72;100.00;101770.63;5053963;28;45604;-81
2021/11/07 07:38:04;;;;;;;;;15.00;12.75;;;;;18.75;100.00;101765.88;5058611;28;45391;-82
2021/11/07 07:40:29;;;;;;;;;18.75;17.75;;;;;18.59;100.00;101769.00;5061758;28;45387;-81
2021/11/07 07:42:55;;;;;;;;;17.00;16.00;;;;;18.71;100.00;101776.97;5044395;28;47249;-82
2021/11/07 07:45:21;;;;;;;;;16.50;13.00;;;;;18.75;100.00;101763.22;5061133;28;45412;-81
2021/11/07 07:47:47;;;;;;;;;17.25;15.00;;;;;18.92;100.00;101775.13;5058939;28;45450;-81
2021/11/07 07:50:15;;;;;;;;;16.00;15.00;;;;;18.86;100.00;101773.81;5058541;28;45723;-81
2021/11/07 07:52:41;;;;;;;;;14.50;12.75;;;;;18.88;100.00;101776.38;5043323;28;48126;-81
2021/11/07 07:55:08;;;;;;;;;15.75;11.00;;;;;19.11;100.00;101774.41;5061354;28;45245;-81
2021/11/07 07:57:35;;;;;;;;;19.75;16.00;;;;;19.24;100.00;101762.47;5060629;28;45385;-81
2021/11/07 08:00:02;;;;;;;;;14.50;12.00;;;;;19.42;100.00;101763.50;5058665;28;45633;-81
2021/11/07 08:02:28;;;;;;;;;15.25;12.50;;;;;18.91;100.00;101752.88;5057735;28;48488;-81
2021/11/07 08:04:53;;;;;;;;;15.75;13.50;;;;;19.02;100.00;101759.97;5059468;28;45481;-81
2021/11/07 08:07:19;;;;;;;;;18.50;15.75;;;;;19.13;100.00;101762.53;5061302;28;45503;-81
2021/11/07 08:09:44;;;;;;;;;17.00;13.50;;;;;19.05;100.00;101760.53;5038457;28;45337;-81
2021/11/07 08:12:10;;;;;;;;;15.25;11.75;;;;;19.08;100.00;101762.13;5059541;28;45428;-81
2021/11/07 08:14:35;;;;;;;;;16.50;14.25;;;;;19.03;100.00;101770.53;5061462;28;45222;-81
2021/11/07 08:17:01;;;;;;;;;14.75;13.50;;;;;19.15;100.00;101768.63;5062041;28;45410;-81
2021/11/07 08:19:27;;;;;;;;;14.50;12.25;;;;;19.09;100.00;101777.19;5060193;28;45239;-81
2021/11/07 08:21:53;;;;;;;;;15.25;12.25;;;;;19.12;100.00;101765.38;5062397;28;45294;-81
2021/11/07 08:24:19;;;;;;;;;14.50;12.25;;;;;19.11;100.00;101764.53;5061525;28;45440;-81
2021/11/07 08:26:44;;;;;;;;;12.50;12.25;;;;;19.15;100.00;101767.78;5037818;28;45375;-81
2021/11/07 08:29:13;;;;;;;;;13.75;11.50;;;;;19.25;100.00;101761.47;5037089;28;45600;-81
2021/11/07 08:31:39;;;;;;;;;13.50;12.00;;;;;19.32;100.00;101754.59;5060101;28;46305;-81
2021/11/07 08:34:06;;;;;;;;;16.50;12.50;;;;;19.48;100.00;101762.19;5043465;28;45550;-81
2021/11/07 08:36:54;;;;;;;;;12.00;12.00;;;;;19.58;100.00;101751.47;5046982;28;45249;-81
2021/11/07 08:39:26;;;;;;;;;15.00;12.00;;;;;19.68;100.00;101741.59;5058416;28;47528;-82
2021/11/07 08:42:02;;;;;;;;;12.00;11.00;;;;;19.66;100.00;101735.56;5060158;28;46176;-82
2021/11/07 09:01:11;;;;;;;;;17.50;16.25;;;;;19.92;100.00;101735.88;5054223;28;45564;-82
2021/11/07 09:04:05;;;;;;;;;18.50;16.25;;;;;19.95;100.00;101747.16;5060246;28;45434;-82
2021/11/07 09:06:35;;;;;;;;;18.00;14.50;;;;;19.88;100.00;101739.81;5046031;28;45445;-82
2021/11/07 09:09:08;;;;;;;;;21.75;16.75;;;;;19.84;100.00;101735.72;5056429;28;45298;-82
2021/11/07 09:11:33;;;;;;;;;21.50;13.50;;;;;19.67;100.00;101727.38;5048388;28;45519;-82
2021/11/07 09:13:59;;;;;;;;;18.75;15.75;;;;;19.90;100.00;101735.16;5055164;28;45512;-82
2021/11/07 09:16:24;;;;;;;;;12.25;11.00;;;;;19.80;100.00;101735.16;5052155;28;45446;-82
2021/11/07 09:18:49;;;;;;;;;12.25;11.50;;;;;19.96;100.00;101727.41;5053517;28;45456;-82
2021/11/07 09:21:22;;;;;;;;;15.00;12.25;;;;;19.69;100.00;101727.22;5046912;28;45250;-82
2021/11/07 09:23:54;;;;;;;;;16.25;13.25;;;;;19.70;100.00;101734.28;5059991;28;45527;-81
2021/11/07 09:26:33;;;;;;;;;13.25;10.25;;;;;19.55;100.00;101730.31;5050065;28;45545;-81
2021/11/07 09:29:03;;;;;;;;;10.00;9.00;;;;;19.47;100.00;101722.94;5052226;28;45438;-81
2021/11/07 09:34:44;;;;;;;;;9.00;6.00;;;;;19.57;100.00;101742.59;5045440;28;45377;-81
2021/11/07 09:37:22;;;;;;;;;7.25;5.25;;;;;19.56;100.00;101727.50;5053484;28;45746;-81
2021/11/07 09:39:55;;;;;;;;;10.75;8.00;;;;;19.80;100.00;101721.75;5043130;28;45524;-81
2021/11/07 09:44:57;;;;;;;;;4.75;4.75;;;;;20.27;100.00;101740.69;5050079;28;45442;-82
2021/11/07 09:47:25;;;;;;;;;4.50;4.00;;;;;20.32;100.00;101731.19;5052619;28;45539;-82
2021/11/07 09:49:51;;;;;;;;;5.50;4.00;;;;;20.12;100.00;101726.88;5031308;28;45561;-82
2021/11/07 09:52:23;;;;;;;;;6.75;5.75;;;;;20.34;100.00;101736.44;5047803;28;45743;-82
2021/11/07 09:54:57;;;;;;;;;3.75;3.75;;;;;20.45;100.00;101752.41;5048018;28;46379;-82
2021/11/07 09:57:25;;;;;;;;;5.75;3.75;;;;;20.51;100.00;101749.16;5053552;28;45704;-82
2021/11/07 09:59:57;;;;;;;;;5.75;5.75;;;;;20.82;100.00;101742.59;5053666;28;45388;-84
2021/11/07 10:02:25;;;;;;;;;9.75;5.25;;;;;21.14;100.00;101736.81;5038883;28;45653;-82
2021/11/07 10:04:51;;;;;;;;;7.25;6.00;;;;;21.66;100.00;101737.16;5057433;28;46320;-81
2021/11/07 10:07:22;;;;;;;;;4.75;4.75;;;;;22.10;100.00;101748.91;5033765;28;45657;-82
2021/11/07 10:09:54;;;;;;;;;7.00;6.00;;;;;22.60;100.00;101745.59;5058809;28;44824;-82
2021/11/07 10:12:31;;;;;;;;;5.50;5.25;;;;;22.91;100.00;101746.00;5061833;28;45395;-81
2021/11/07 10:14:59;;;;;;;;;12.50;10.50;;;;;22.96;100.00;101741.81;5063419;28;45549;-82
2021/11/07 10:17:26;;;;;;;;;8.00;7.25;;;;;22.76;100.00;101746.56;5057278;28;45618;-82
2021/11/07 10:20:10;;;;;;;;;11.00;9.50;;;;;22.23;100.00;101752.03;5058067;28;45557;-82
2021/11/07 10:22:36;;;;;;;;;1.25;1.25;;;;;21.82;100.00;101761.53;5057842;28;45460;-83
2021/11/07 10:25:06;;;;;;;;;10.25;8.75;;;;;21.55;100.00;101750.81;5051933;28;45400;-84
2021/11/07 10:27:39;;;;;;;;;5.50;5.50;;;;;21.58;100.00;101748.63;5050316;27;45831;-83
2021/11/07 10:30:23;;;;;;;;;15.75;9.25;;;;;21.60;100.00;101743.13;5041379;28;45524;-83
2021/11/07 10:32:57;;;;;;;;;8.25;6.00;;;;;21.78;100.00;101737.78;5057007;28;45470;-83
2021/11/07 10:43:12;;;;;;;;;10.50;6.75;;;;;22.18;100.00;101754.34;5057533;28;45296;-82
2021/11/07 10:52:05;;;;;;;;;9.00;5.50;;;;;22.13;100.00;101750.41;5060498;28;45337;-85
2021/11/07 10:54:20;;;;;;;;;7.00;5.75;;;;;22.21;100.00;101766.66;5055852;28;45758;-82
2021/11/07 10:57:15;;;;;;;;;5.75;4.50;;;;;22.05;100.00;101764.63;5067846;28;46285;-82
2021/11/07 10:59:41;;;;;;;;;10.25;4.50;;;;;21.92;100.00;101765.00;5058030;28;45507;-82
2021/11/07 11:02:36;;;;;;;;;5.25;4.00;;;;;22.08;100.00;101760.81;5054406;28;45491;-82
2021/11/07 11:05:25;;;;;;;;;7.00;4.75;;;;;21.93;100.00;101747.88;5057800;28;45426;-82
2021/11/07 11:07:56;;;;;;;;;7.00;5.00;;;;;22.03;100.00;101758.59;5054681;28;45672;-82
2021/11/07 11:10:30;;;;;;;;;9.00;4.25;;;;;22.05;100.00;101751.19;5048495;28;45423;-82
2021/11/07 11:13:06;;;;;;;;;7.25;6.00;;;;;21.98;100.00;101750.13;5054498;28;45439;-82
2021/11/07 11:15:41;;;;;;;;;7.00;4.50;;;;;21.65;100.00;101754.28;5037747;28;45732;-82
2021/11/07 11:18:33;;;;;;;;;4.50;4.25;;;;;21.58;100.00;101745.09;5065887;28;46157;-82
2021/11/07 11:21:35;;;;;;;;;5.50;4.50;;;;;21.62;100.00;101747.34;5061898;28;45443;-83
2021/11/07 11:29:11;;;;;;;;;5.00;4.75;;;;;20.91;100.00;101733.66;5066042;28;46469;-82
2021/11/07 11:31:53;;;;;;;;;8.00;5.25;;;;;20.96;100.00;101735.06;5054888;28;45403;-82
2021/11/07 11:34:23;;;;;;;;;7.50;5.25;;;;;20.91;100.00;101708.66;5045014;28;45692;-82
2021/11/07 11:37:01;;;;;;;;;13.50;7.00;;;;;20.97;100.00;101715.25;5040159;28;45718;-82
2021/11/07 11:39:36;;;;;;;;;10.25;4.75;;;;;21.11;100.00;101721.00;5062295;28;45370;-83
2021/11/07 11:42:08;;;;;;;;;8.75;6.00;;;;;21.03;100.00;101718.19;5038507;28;45288;-83
2021/11/07 11:44:34;;;;;;;;;7.00;6.00;;;;;21.53;100.00;101725.91;5062960;28;45367;-81
2021/11/07 11:48:14;;;;;;;;;5.50;4.75;;;;;21.43;100.00;101720.59;5051582;28;45609;-82
2021/11/07 11:56:12;;;;;;;;;7.75;6.00;;;;;21.58;100.00;101711.00;5057333;28;45282;-81
2021/11/07 11:58:50;;;;;;;;;7.00;5.25;;;;;21.52;100.00;101711.63;5053977;28;45470;-82
2021/11/07 12:01:24;;;;;;;;;10.50;6.50;;;;;21.68;100.00;101716.31;5067946;28;45756;-82
2021/11/07 12:04:04;;;;;;;;;9.00;6.00;;;;;21.83;100.00;101708.59;5059133;28;45463;-82
2021/11/07 12:15:14;;;;;;;;;6.00;4.00;;;;;22.40;98.52;101701.88;5055437;28;45419;-81
2021/11/07 12:17:46;;;;;;;;;5.50;5.00;;;;;22.02;96.24;101716.53;5063482;28;45432;-81
2021/11/07 12:20:21;;;;;;;;;10.75;7.00;;;;;22.07;96.81;101719.59;5043359;28;45507;-82
2021/11/07 12:22:47;;;;;;;;;11.25;8.00;;;;;21.87;96.50;101708.13;5050733;28;46085;-81
2021/11/07 12:25:22;;;;;;;;;7.50;5.25;;;;;21.86;99.32;101703.75;5048884;28;45592;-83
2021/11/07 12:27:53;;;;;;;;;7.00;5.00;;;;;21.98;98.21;101699.00;5040741;28;45675;-83
2021/11/07 12:30:24;;;;;;;;;10.00;6.75;;;;;22.19;95.40;101701.38;5056052;28;45706;-84
2021/11/07 12:33:23;;;;;;;;;11.00;5.75;;;;;22.04;95.14;101701.06;5064657;28;46388;-84
2021/11/07 12:41:26;;;;;;;;;7.25;5.00;;;;;21.63;96.01;101707.88;5062713;28;45373;-81
2021/11/07 12:44:00;;;;;;;;;14.00;7.75;;;;;21.77;97.09;101699.28;5037829;28;46055;-84
2021/11/07 12:46:52;;;;;;;;;7.50;5.75;;;;;21.84;96.64;101688.78;5033117;28;45540;-86
2021/11/07 12:49:22;;;;;;;;;4.50;4.50;;;;;22.07;95.56;101697.25;5053734;28;45514;-82